Time;durP1;ratioP1;P1;durP2;ratioP2;P2;SDS_P1;SDS_P2;PMS_P1;PMS_P2;Temp;Humidity;BMP_temperature;BMP_pressure;BME280_temperature;BME280_humidity;BME280_pressure;Samples;Min_cycle;Max_cycle;Signal;HPM_P1;HPM_P2
2022/12/25 00:00:53;;;;;;;0.00;0.00;;;;;;;8.55;80.28;99325.75;7365572;19;20006;-61
2022/12/25 00:03:18;;;;;;;0.10;0.10;;;;;;;8.63;80.29;99335.06;7360880;19;20533;-61
2022/12/25 00:05:44;;;;;;;0.08;0.08;;;;;;;8.67;80.53;99319.28;7366471;19;20014;-61
2022/12/25 00:08:09;;;;;;;0.10;0.10;;;;;;;8.74;80.17;99312.09;7361460;19;20026;-61
2022/12/25 00:10:35;;;;;;;0.10;0.10;;;;;;;8.78;79.98;99304.09;7366115;19;20030;-61
2022/12/25 00:13:00;;;;;;;0.10;0.10;;;;;;;8.84;80.17;99305.63;7363882;19;20656;-61
2022/12/25 00:15:26;;;;;;;0.10;0.10;;;;;;;8.91;80.31;99304.47;7362762;19;20033;-61
2022/12/25 00:17:51;;;;;;;0.00;0.00;;;;;;;8.95;79.89;99298.25;7361482;19;20027;-61
2022/12/25 00:20:17;;;;;;;0.10;0.10;;;;;;;8.98;80.03;99308.56;7362426;19;20042;-61
2022/12/25 00:22:42;;;;;;;0.00;0.00;;;;;;;9.01;79.87;99305.81;7363896;19;20371;-61
2022/12/25 00:25:08;;;;;;;0.10;0.10;;;;;;;9.03;79.61;99308.38;7363009;19;20014;-61
2022/12/25 00:27:36;;;;;;;0.00;0.00;;;;;;;9.04;79.85;99302.25;7364396;19;20006;-61
2022/12/25 00:30:03;;;;;;;0.00;0.00;;;;;;;9.04;79.63;99297.91;7363465;19;20101;-61
2022/12/25 00:32:28;;;;;;;0.00;0.00;;;;;;;9.04;79.30;99300.50;7364200;19;20356;-61
2022/12/25 00:34:53;;;;;;;0.03;0.03;;;;;;;9.04;79.33;99305.72;7363173;19;21417;-61
2022/12/25 00:37:19;;;;;;;0.10;0.10;;;;;;;9.04;79.57;99299.66;7365885;19;20026;-60
2022/12/25 00:39:46;;;;;;;0.00;0.00;;;;;;;9.04;79.64;99300.50;7364100;19;20007;-61
2022/12/25 00:42:18;;;;;;;0.00;0.00;;;;;;;9.03;79.29;99303.19;7362729;19;20684;-61
2022/12/25 00:44:48;;;;;;;0.03;0.03;;;;;;;9.03;79.44;99295.38;7363595;19;20030;-61
2022/12/25 00:47:14;;;;;;;0.00;0.00;;;;;;;8.99;79.63;99297.22;7362809;19;20026;-61
2022/12/25 00:49:39;;;;;;;0.10;0.10;;;;;;;8.98;79.31;99279.91;7364283;19;20458;-61
2022/12/25 00:52:05;;;;;;;0.03;0.03;;;;;;;8.98;79.63;99290.34;7363271;19;20009;-61
2022/12/25 00:54:30;;;;;;;0.10;0.10;;;;;;;8.97;79.69;99293.84;7363166;19;20371;-61
2022/12/25 00:56:56;;;;;;;0.00;0.00;;;;;;;8.99;79.77;99297.22;7360452;19;20086;-61
2022/12/25 00:59:21;;;;;;;0.10;0.10;;;;;;;8.98;79.56;99290.34;7363144;19;20002;-61
2022/12/25 01:01:46;;;;;;;0.00;0.00;;;;;;;8.99;79.58;99296.38;7363051;19;20862;-60
2022/12/25 01:04:12;;;;;;;0.00;0.00;;;;;;;9.00;79.61;99304.13;7362318;19;20007;-61
2022/12/25 01:06:38;;;;;;;0.00;0.00;;;;;;;9.01;79.21;99305.81;7362035;19;20064;-60
2022/12/25 01:11:48;;;;;;;0.10;0.10;;;;;;;9.02;79.42;99311.88;7359539;19;20022;-61
2022/12/25 01:14:13;;;;;;;0.00;0.00;;;;;;;9.03;79.65;99308.38;7364817;19;20054;-61
2022/12/25 01:16:39;;;;;;;0.10;0.10;;;;;;;8.99;79.41;99306.78;7362196;19;20024;-61
2022/12/25 01:19:04;;;;;;;0.10;0.10;;;;;;;9.07;79.54;99321.22;7363425;19;25576;-61
2022/12/25 01:21:31;;;;;;;0.10;0.10;;;;;;;9.04;79.78;99303.09;7361711;19;20010;-61
2022/12/25 01:23:56;;;;;;;0.00;0.00;;;;;;;9.14;79.73;99316.63;7362597;19;20006;-61
2022/12/25 01:26:24;;;;;;;0.08;0.08;;;;;;;9.16;79.59;99309.59;7362387;19;20030;-60
2022/12/25 01:28:49;;;;;;;0.00;0.00;;;;;;;9.20;79.65;99305.09;7360170;19;20015;-61
2022/12/25 01:31:17;;;;;;;0.10;0.10;;;;;;;9.23;79.84;99289.38;7361551;19;20021;-61
2022/12/25 01:33:43;;;;;;;0.00;0.00;;;;;;;9.24;79.39;99296.28;7361624;19;20007;-61
2022/12/25 01:36:21;;;;;;;0.03;0.03;;;;;;;9.25;79.69;99309.22;7364127;19;20014;-61
2022/12/25 01:38:48;;;;;;;0.10;0.10;;;;;;;9.21;79.72;99291.19;7360629;19;20018;-61
2022/12/25 01:41:15;;;;;;;0.00;0.00;;;;;;;9.26;79.37;99300.50;7361051;19;20058;-61
2022/12/25 01:44:07;;;;;;;0.00;0.00;;;;;;;9.29;79.67;99294.34;7362076;19;20010;-61
2022/12/25 01:46:34;;;;;;;0.00;0.00;;;;;;;9.27;79.67;99293.53;7260257;19;2004467;-61
2022/12/25 01:49:07;;;;;;;0.00;0.00;;;;;;;9.31;79.43;99292.50;7361369;19;20007;-60
2022/12/25 01:51:41;;;;;;;0.03;0.03;;;;;;;9.31;79.67;99308.13;7358014;19;20013;-61
2022/12/25 01:54:22;;;;;;;0.10;0.10;;;;;;;9.34;79.15;99295.00;7363054;19;20010;-61
2022/12/25 01:56:50;;;;;;;0.00;0.00;;;;;;;9.20;79.24;99274.69;7360181;19;20351;-61
2022/12/25 01:59:20;;;;;;;0.05;0.05;;;;;;;9.30;79.16;99290.81;7362108;19;20007;-61
2022/12/25 02:01:46;;;;;;;0.00;0.00;;;;;;;9.29;79.12;99295.19;7360458;19;20490;-60
2022/12/25 02:04:38;;;;;;;0.00;0.00;;;;;;;9.31;79.40;99289.91;7362720;19;20030;-61
2022/12/25 02:07:14;;;;;;;0.00;0.00;;;;;;;9.31;79.12;99287.28;7258419;19;2004530;-61
2022/12/25 02:09:40;;;;;;;0.00;0.00;;;;;;;9.27;79.45;99291.75;7360985;19;20010;-61
2022/12/25 02:12:08;;;;;;;0.00;0.00;;;;;;;9.21;79.34;99275.53;7362149;19;20018;-60
2022/12/25 02:14:36;;;;;;;0.00;0.00;;;;;;;9.29;79.58;99289.13;7358591;19;20031;-61
2022/12/25 02:17:27;;;;;;;;;;;;;;;9.30;79.32;99290.81;7360068;19;20038;-60
2022/12/25 02:19:56;;;;;;;0.10;0.10;;;;;;;9.27;79.15;99291.75;7359599;19;19922;-61
2022/12/25 02:22:39;;;;;;;0.10;0.10;;;;;;;9.29;78.99;99299.53;7358172;19;20007;-61
2022/12/25 02:25:35;;;;;;;0.00;0.00;;;;;;;9.28;79.15;99303.06;7359180;19;20574;-61
2022/12/25 02:28:10;;;;;;;0.00;0.00;;;;;;;9.09;79.30;99272.53;7258116;19;2004330;-61
2022/12/25 02:30:44;;;;;;;0.00;0.00;;;;;;;9.25;79.28;99297.97;7360536;19;20020;-60
2022/12/25 02:36:14;;;;;;;0.10;0.10;;;;;;;9.23;79.06;99300.63;7259050;19;2004227;-61
2022/12/25 02:39:56;;;;;;;0.10;0.10;;;;;;;9.07;79.31;99279.56;7357709;19;20010;-61
2022/12/25 02:41:31;;;;;;;0.00;0.00;;;;;;;9.20;79.47;99299.91;7364003;19;20020;-61
2022/12/25 03:06:43;;;;;;;0.03;0.03;;;;;;;9.20;79.27;99312.94;7366833;19;20018;-61
2022/12/25 03:12:23;;;;;;;0.00;0.00;;;;;;;9.21;79.43;99304.19;7263985;19;2004368;-60
2022/12/25 03:17:34;;;;;;;0.00;0.00;;;;;;;9.20;79.36;99300.75;7369059;19;20031;-60
2022/12/25 03:28:13;;;;;;;0.00;0.00;;;;;;;9.24;79.72;99291.91;7361344;19;20473;-61
2022/12/25 03:31:12;;;;;;;0.00;0.00;;;;;;;9.28;79.60;99297.84;7369748;19;20011;-61
2022/12/25 04:36:11;;;;;;;0.03;0.03;;;;;;;9.22;79.66;99279.84;7363096;19;20497;-60
2022/12/25 04:38:38;;;;;;;0.10;0.10;;;;;;;9.24;79.59;99268.47;7367031;19;20015;-60
2022/12/25 04:41:04;;;;;;;0.10;0.10;;;;;;;9.18;79.31;99267.88;7366073;19;20010;-59
2022/12/25 04:43:30;;;;;;;0.00;0.00;;;;;;;9.24;79.66;99267.63;7363540;19;20454;-60
2022/12/25 04:45:57;;;;;;;0.00;0.00;;;;;;;9.25;79.64;99271.91;7367197;19;20006;-60
2022/12/25 04:48:24;;;;;;;0.00;0.00;;;;;;;9.24;79.19;99268.47;7365922;19;20018;-60
2022/12/25 04:50:50;;;;;;;0.10;0.10;;;;;;;9.24;79.24;99265.84;7364322;19;20011;-61
2022/12/25 04:53:16;;;;;;;0.00;0.00;;;;;;;9.24;79.28;99265.00;7367056;19;20010;-60
2022/12/25 04:55:41;;;;;;;0.10;0.10;;;;;;;9.19;79.46;99251.31;7366624;19;20018;-60
2022/12/25 04:58:07;;;;;;;0.00;0.00;;;;;;;9.24;79.57;99259.81;7365350;19;21086;-60
2022/12/25 05:00:32;;;;;;;0.00;0.00;;;;;;;9.25;79.60;99264.09;7363963;19;20026;-60
2022/12/25 05:02:58;;;;;;;0.00;0.00;;;;;;;9.25;79.57;99258.91;7363180;19;20018;-60
2022/12/25 05:05:23;;;;;;;0.03;0.03;;;;;;;9.20;79.54;99247.81;7366328;19;20845;-61
2022/12/25 05:07:49;;;;;;;0.10;0.10;;;;;;;9.20;79.13;99247.81;7364755;19;20019;-61
2022/12/25 05:10:14;;;;;;;0.10;0.10;;;;;;;9.25;79.49;99259.72;7365416;19;20006;-60
2022/12/25 05:12:40;;;;;;;0.10;0.10;;;;;;;9.24;79.49;99255.44;7365682;19;20017;-61
2022/12/25 05:15:05;;;;;;;0.00;0.00;;;;;;;9.26;79.29;99264.03;7364212;19;20014;-60
2022/12/25 05:17:31;;;;;;;0.10;0.10;;;;;;;9.27;79.58;99270.94;7364441;19;20022;-61
2022/12/25 05:19:56;;;;;;;0.10;0.10;;;;;;;9.27;79.20;99249.25;7365809;19;20014;-61
2022/12/25 05:22:21;;;;;;;0.00;0.00;;;;;;;9.30;79.59;99259.56;7363129;19;20750;-61
2022/12/25 05:24:47;;;;;;;0.00;0.00;;;;;;;9.30;79.51;99264.75;7363302;19;20002;-60
2022/12/25 05:27:13;;;;;;;0.05;0.05;;;;;;;9.30;79.46;99264.75;7362978;19;20097;-60
2022/12/25 05:29:38;;;;;;;0.10;0.10;;;;;;;9.24;79.20;99254.59;7364470;19;20002;-60
2022/12/25 05:32:04;;;;;;;0.00;0.00;;;;;;;9.29;79.49;99263.06;7365709;19;20800;-61
2022/12/25 05:34:29;;;;;;;0.00;0.00;;;;;;;9.31;79.18;99263.84;7364401;19;20094;-60
2022/12/25 05:36:55;;;;;;;0.00;0.00;;;;;;;9.32;79.57;99268.97;7365797;19;20750;-60
2022/12/25 05:39:21;;;;;;;0.00;0.00;;;;;;;9.34;79.27;99266.34;7365005;19;20010;-60
2022/12/25 05:41:46;;;;;;;0.10;0.10;;;;;;;9.36;79.62;99275.78;7362653;19;20545;-60
2022/12/25 05:44:12;;;;;;;0.00;0.00;;;;;;;9.38;79.51;99270.53;7364354;19;20011;-60
2022/12/25 05:46:37;;;;;;;0.08;0.08;;;;;;;9.37;79.25;99260.97;7363660;19;20958;-61
2022/12/25 05:49:04;;;;;;;0.03;0.03;;;;;;;9.41;79.25;99267.78;7365035;19;20014;-60
2022/12/25 05:51:30;;;;;;;0.00;0.00;;;;;;;9.44;79.21;99266.81;7364549;19;19999;-60
2022/12/25 05:53:55;;;;;;;0.00;0.00;;;;;;;9.45;79.19;99261.53;7363381;19;20010;-60
2022/12/25 05:56:21;;;;;;;0.00;0.00;;;;;;;9.47;79.61;99257.09;7365674;19;20014;-61
2022/12/25 05:58:46;;;;;;;0.00;0.00;;;;;;;9.50;79.12;99266.56;7362600;19;20014;-60
2022/12/25 06:01:18;;;;;;;0.10;0.10;;;;;;;9.53;79.22;99259.47;7365053;19;20014;-61
2022/12/25 06:03:44;;;;;;;0.10;0.10;;;;;;;9.53;79.33;99256.88;7360734;19;20466;-61
2022/12/25 06:06:10;;;;;;;0.00;0.00;;;;;;;9.54;79.38;99253.34;7363880;19;20010;-60
2022/12/25 06:08:36;;;;;;;0.10;0.10;;;;;;;9.56;79.58;99256.72;7362646;19;20062;-60
2022/12/25 06:11:03;;;;;;;0.00;0.00;;;;;;;9.57;79.23;99253.19;7362890;19;20368;-60
2022/12/25 06:13:28;;;;;;;0.00;0.00;;;;;;;9.47;79.17;99236.25;7363700;19;20023;-60
2022/12/25 06:15:54;;;;;;;0.00;0.00;;;;;;;9.56;79.00;99261.94;7364605;19;20019;-60
2022/12/25 06:18:19;;;;;;;0.10;0.10;;;;;;;9.57;79.44;99253.19;7362661;19;20017;-60
2022/12/25 06:20:45;;;;;;;0.10;0.10;;;;;;;9.57;79.42;99253.19;7365502;19;20374;-60
2022/12/25 06:23:10;;;;;;;0.10;0.10;;;;;;;9.56;79.40;99255.88;7364349;19;20002;-61
2022/12/25 06:25:39;;;;;;;0.00;0.00;;;;;;;9.59;79.02;99253.16;7363759;19;20010;-60
2022/12/25 06:28:05;;;;;;;0.00;0.00;;;;;;;9.57;79.43;99258.41;7362363;19;19998;-61
2022/12/25 06:30:31;;;;;;;0.00;0.00;;;;;;;9.57;79.34;99258.41;7363334;19;22335;-60
2022/12/25 06:32:58;;;;;;;0.10;0.10;;;;;;;9.55;78.94;99260.25;7363293;19;20014;-61
2022/12/25 06:35:24;;;;;;;0.00;0.00;;;;;;;9.51;79.43;99258.66;7363803;19;20058;-60
2022/12/25 06:37:49;;;;;;;0.03;0.03;;;;;;;9.57;79.37;99262.78;7363550;19;21328;-60
2022/12/25 06:40:15;;;;;;;0.10;0.10;;;;;;;9.56;79.53;99261.94;7359191;19;20105;-60
2022/12/25 06:42:40;;;;;;;0.10;0.10;;;;;;;9.56;79.34;99256.72;7364112;19;20048;-60
2022/12/25 06:45:06;;;;;;;0.00;0.00;;;;;;;9.57;78.95;99247.13;7362111;19;20520;-60
2022/12/25 06:47:32;;;;;;;0.00;0.00;;;;;;;9.58;79.16;99249.69;7363707;19;20019;-60
2022/12/25 06:49:57;;;;;;;0.10;0.10;;;;;;;9.58;79.21;99247.09;7362731;19;20025;-60
2022/12/25 06:52:22;;;;;;;0.10;0.10;;;;;;;9.54;79.00;99248.13;7364757;19;21963;-60
2022/12/25 06:54:48;;;;;;;0.10;0.10;;;;;;;9.57;78.87;99241.94;7358052;19;20039;-60
2022/12/25 06:57:13;;;;;;;0.10;0.10;;;;;;;9.56;79.09;99256.72;7360885;19;20017;-60
2022/12/25 06:59:39;;;;;;;0.10;0.10;;;;;;;9.52;79.05;99247.31;7353797;19;20382;-60
2022/12/25 07:02:04;;;;;;;0.00;0.00;;;;;;;9.46;79.42;99249.34;7360881;19;20014;-61
2022/12/25 07:04:35;;;;;;;0.10;0.10;;;;;;;9.40;79.14;99240.03;7360939;19;20664;-60
2022/12/25 07:07:01;;;;;;;0.00;0.00;;;;;;;9.49;78.93;99262.25;7360775;19;20767;-61
2022/12/25 07:09:27;;;;;;;0.03;0.03;;;;;;;9.48;79.07;99256.22;7359579;19;20022;-60
2022/12/25 07:11:53;;;;;;;0.00;0.00;;;;;;;9.36;78.88;99246.28;7361760;19;20549;-60
2022/12/25 07:14:21;;;;;;;0.10;0.10;;;;;;;9.46;78.94;99257.16;7357318;19;20014;-60
2022/12/25 07:16:47;;;;;;;0.10;0.10;;;;;;;9.43;79.06;99255.56;7361316;19;20362;-60
2022/12/25 07:19:12;;;;;;;0.00;0.00;;;;;;;9.43;79.39;99260.75;7357335;19;20026;-60
2022/12/25 07:21:38;;;;;;;0.00;0.00;;;;;;;9.41;79.25;99262.56;7357043;19;20006;-60
2022/12/25 07:24:03;;;;;;;0.03;0.03;;;;;;;9.39;78.81;99264.41;7359309;19;20014;-60
2022/12/25 07:26:29;;;;;;;0.00;0.00;;;;;;;9.39;79.08;99264.41;7364548;19;20015;-61
2022/12/25 07:28:55;;;;;;;0.10;0.10;;;;;;;9.38;79.22;99267.91;7365942;19;20014;-60
2022/12/25 07:31:21;;;;;;;0.05;0.05;;;;;;;9.36;78.96;99264.50;7365313;19;20038;-60
2022/12/25 07:33:47;;;;;;;0.08;0.08;;;;;;;9.36;79.07;99269.72;7364084;19;20363;-60
2022/12/25 07:36:13;;;;;;;0.03;0.03;;;;;;;9.36;79.30;99274.94;7366614;19;20013;-60
2022/12/25 07:38:40;;;;;;;0.00;0.00;;;;;;;9.31;79.14;99266.44;7366611;19;20018;-60
2022/12/25 07:41:10;;;;;;;0.00;0.00;;;;;;;9.38;79.18;99283.56;7368675;19;20191;-59
2022/12/25 07:43:35;;;;;;;0.00;0.00;;;;;;;9.33;79.43;99277.69;7367207;19;20014;-60
2022/12/25 07:46:01;;;;;;;0.00;0.00;;;;;;;9.32;79.16;99268.13;7368938;19;20021;-61
2022/12/25 07:48:27;;;;;;;0.00;0.00;;;;;;;9.35;79.23;99283.66;7367298;19;22451;-60
2022/12/25 07:51:04;;;;;;;0.10;0.10;;;;;;;9.40;79.17;99286.09;7367236;19;20010;-60
2022/12/25 07:53:30;;;;;;;0.10;0.10;;;;;;;9.35;79.39;99292.31;7366479;19;20010;-60
2022/12/25 07:56:01;;;;;;;0.00;0.00;;;;;;;9.37;79.27;99292.25;7369597;19;20030;-60
2022/12/25 07:58:28;;;;;;;0.00;0.00;;;;;;;9.34;79.51;99288.03;7364436;19;20748;-60
2022/12/25 08:00:54;;;;;;;0.00;0.00;;;;;;;9.35;79.41;99291.47;7366057;19;20022;-59
2022/12/25 08:03:22;;;;;;;0.10;0.10;;;;;;;9.34;79.11;99297.59;7365995;19;20466;-60
2022/12/25 08:05:47;;;;;;;0.00;0.00;;;;;;;9.34;79.22;99292.38;7366047;19;20065;-60
2022/12/25 08:08:13;;;;;;;0.10;0.10;;;;;;;9.35;79.23;99294.09;7363220;19;20045;-60
2022/12/25 08:10:44;;;;;;;0.00;0.00;;;;;;;9.38;79.31;99299.19;7365681;19;20069;-60
2022/12/25 08:13:09;;;;;;;0.10;0.10;;;;;;;9.36;79.33;99296.63;7366402;19;20006;-60
2022/12/25 08:15:34;;;;;;;0.03;0.03;;;;;;;9.37;79.12;99297.47;7368681;19;21259;-60
2022/12/25 08:18:00;;;;;;;0.10;0.10;;;;;;;9.40;79.25;99297.34;7364152;19;20043;-60
2022/12/25 08:20:25;;;;;;;0.05;0.05;;;;;;;9.42;79.66;99295.50;7366888;19;20109;-59
2022/12/25 08:22:51;;;;;;;0.00;0.00;;;;;;;9.44;79.62;99298.94;7363611;19;20615;-60
2022/12/25 08:25:16;;;;;;;0.00;0.00;;;;;;;9.45;79.26;99310.19;7367405;19;20038;-61
2022/12/25 08:27:42;;;;;;;0.05;0.05;;;;;;;9.46;79.09;99297.09;7363692;19;20400;-60
2022/12/25 08:30:07;;;;;;;0.10;0.10;;;;;;;9.48;79.44;99307.44;7364280;19;20042;-60
2022/12/25 08:32:34;;;;;;;0.00;0.00;;;;;;;9.42;79.25;99292.91;7366641;19;20006;-60
2022/12/25 08:34:59;;;;;;;0.00;0.00;;;;;;;9.49;79.13;99307.41;7365923;19;20886;-60
2022/12/25 08:37:25;;;;;;;0.05;0.05;;;;;;;9.47;79.04;99309.22;7362890;19;20031;-60
2022/12/25 08:39:50;;;;;;;0.00;0.00;;;;;;;9.41;79.37;99304.25;7362470;19;20038;-60
2022/12/25 08:42:16;;;;;;;0.00;0.00;;;;;;;9.50;79.42;99318.66;7364963;19;20013;-60
2022/12/25 08:44:41;;;;;;;0.00;0.00;;;;;;;9.42;79.14;99305.94;7363577;19;20037;-60
2022/12/25 08:47:06;;;;;;;0.00;0.00;;;;;;;9.50;79.03;99323.88;7364336;19;20014;-60
2022/12/25 08:49:32;;;;;;;0.00;0.00;;;;;;;9.51;79.09;99325.56;7364892;19;20459;-59
2022/12/25 08:51:58;;;;;;;0.00;0.00;;;;;;;9.52;79.48;99328.09;7364333;19;20011;-60
2022/12/25 08:54:24;;;;;;;0.00;0.00;;;;;;;9.54;79.20;99336.72;7366215;19;20006;-60
2022/12/25 08:56:49;;;;;;;0.10;0.10;;;;;;;9.52;79.74;99322.91;7364711;19;20018;-60
2022/12/25 08:59:14;;;;;;;0.10;0.10;;;;;;;9.59;79.55;99334.78;7365083;19;20665;-60
2022/12/25 09:01:40;;;;;;;0.00;0.00;;;;;;;9.62;79.38;99334.66;7365287;19;20074;-60
2022/12/25 09:04:05;;;;;;;0.10;0.10;;;;;;;9.66;79.31;99334.53;7365434;19;20028;-60
2022/12/25 09:06:31;;;;;;;0.10;0.10;;;;;;;9.70;79.22;99333.50;7348471;19;20037;-60
2022/12/25 09:08:56;;;;;;;0.00;0.00;;;;;;;9.73;79.17;99331.63;7366123;19;20081;-60
2022/12/25 09:11:22;;;;;;;0.08;0.08;;;;;;;9.77;79.02;99337.53;7365149;19;20786;-60
2022/12/25 09:13:48;;;;;;;0.08;0.08;;;;;;;9.79;79.37;99343.56;7364481;19;20038;-60
2022/12/25 09:16:18;;;;;;;0.10;0.10;;;;;;;9.84;79.05;99337.25;7365281;19;20015;-60
2022/12/25 09:18:44;;;;;;;0.00;0.00;;;;;;;9.85;79.33;99341.53;7363119;19;20264;-60
2022/12/25 09:21:12;;;;;;;0.10;0.10;;;;;;;9.91;78.98;99345.66;7365212;19;20010;-60
2022/12/25 09:23:38;;;;;;;0.00;0.00;;;;;;;9.91;79.26;99345.66;7364147;19;20517;-60
2022/12/25 09:26:06;;;;;;;0.00;0.00;;;;;;;9.96;79.50;99348.91;7363485;19;20058;-60
2022/12/25 09:28:31;;;;;;;;;;;;;;;10.03;79.40;99345.13;7365612;19;20014;-60
2022/12/25 09:30:57;;;;;;;0.08;0.08;;;;;;;9.87;79.51;99328.44;7365344;19;20080;-60
2022/12/25 09:33:23;;;;;;;0.00;0.00;;;;;;;10.01;79.00;99352.16;7363664;19;20654;-60
2022/12/25 09:36:01;;;;;;;0.00;0.00;;;;;;;10.04;79.08;99354.66;7365183;19;21607;-60
2022/12/25 09:38:27;;;;;;;0.10;0.10;;;;;;;10.03;79.06;99355.56;7364590;19;20006;-61
2022/12/25 09:41:15;;;;;;;0.05;0.05;;;;;;;10.08;79.00;99356.19;7365189;19;20934;-60
2022/12/25 09:43:48;;;;;;;0.03;0.03;;;;;;;10.08;79.43;99353.59;7261892;19;2004253;-61
2022/12/25 09:46:18;;;;;;;0.00;0.00;;;;;;;10.09;79.37;99350.09;7364548;19;20014;-61
2022/12/25 09:49:03;;;;;;;0.10;0.10;;;;;;;10.13;79.18;99351.63;7363373;19;20014;-61
2022/12/25 09:51:32;;;;;;;0.00;0.00;;;;;;;10.09;79.32;99344.88;7361377;19;20007;-60
2022/12/25 09:54:03;;;;;;;0.05;0.05;;;;;;;10.14;79.02;99347.31;7364116;19;20031;-60
2022/12/25 09:56:28;;;;;;;0.10;0.10;;;;;;;10.07;79.29;99341.47;7363180;19;20436;-60
2022/12/25 09:58:54;;;;;;;0.10;0.10;;;;;;;10.09;78.95;99337.06;7364418;19;20014;-61
2022/12/25 10:01:43;;;;;;;0.00;0.00;;;;;;;10.22;79.46;99344.34;7360956;19;20022;-60
2022/12/25 10:04:30;;;;;;;0.00;0.00;;;;;;;10.21;79.40;99351.34;7364456;19;20498;-61
2022/12/25 10:07:24;;;;;;;0.00;0.00;;;;;;;10.22;79.37;99360.84;7363914;19;20625;-60
2022/12/25 10:10:24;;;;;;;0.00;0.00;;;;;;;10.20;79.22;99359.22;7258953;19;2004320;-60
2022/12/25 10:13:08;;;;;;;0.00;0.00;;;;;;;10.14;79.21;99348.16;7256972;19;2004495;-61
2022/12/25 10:15:49;;;;;;;0.00;0.00;;;;;;;10.14;79.54;99358.59;7364341;19;20013;-61
2022/12/25 10:18:33;;;;;;;0.00;0.00;;;;;;;10.14;79.46;99353.38;7361011;19;20335;-60
2022/12/25 10:21:01;;;;;;;0.00;0.00;;;;;;;10.08;79.13;99353.59;7363144;19;20046;-61
2022/12/25 10:23:34;;;;;;;0.00;0.00;;;;;;;10.04;79.27;99343.38;7362433;19;20025;-60
2022/12/25 10:25:59;;;;;;;0.08;0.08;;;;;;;10.07;79.26;99364.94;7361670;19;20090;-61
2022/12/25 10:28:44;;;;;;;0.10;0.10;;;;;;;10.08;79.69;99364.03;7362202;19;20003;-60
2022/12/25 10:31:22;;;;;;;0.03;0.03;;;;;;;10.08;79.73;99364.03;7359972;19;20018;-60
2022/12/25 10:33:49;;;;;;;0.00;0.00;;;;;;;10.07;79.72;99370.16;7363247;19;20015;-61
2022/12/25 10:36:18;;;;;;;0.10;0.10;;;;;;;10.09;79.86;99367.50;7359984;19;20014;-61
2022/12/25 10:38:44;;;;;;;0.00;0.00;;;;;;;10.09;79.43;99368.34;7361673;19;20019;-60
2022/12/25 10:41:34;;;;;;;0.00;0.00;;;;;;;10.18;79.86;99364.50;7361316;19;20739;-61
2022/12/25 10:44:10;;;;;;;0.05;0.05;;;;;;;10.11;79.64;99350.88;7362194;19;20050;-61
2022/12/25 10:46:35;;;;;;;0.03;0.03;;;;;;;10.27;79.79;99358.91;7362369;19;20351;-60
2022/12/25 10:49:01;;;;;;;0.00;0.00;;;;;;;10.32;79.44;99353.50;7362056;19;20010;-61
2022/12/25 10:51:32;;;;;;;0.00;0.00;;;;;;;10.39;79.15;99339.25;7360774;19;20090;-61
2022/12/25 10:53:58;;;;;;;0.10;0.10;;;;;;;10.59;79.16;99349.72;7363631;19;20010;-61
2022/12/25 10:56:24;;;;;;;0.00;0.00;;;;;;;10.74;79.14;99347.31;7362017;19;20044;-61
2022/12/25 10:58:49;;;;;;;0.10;0.10;;;;;;;10.92;79.00;99346.47;7362601;19;20538;-61
2022/12/25 11:01:15;;;;;;;0.00;0.00;;;;;;;11.09;79.07;99338.69;7364726;19;20025;-61
2022/12/25 11:03:44;;;;;;;0.00;0.00;;;;;;;11.27;78.55;99349.22;7368498;19;20011;-61
2022/12/25 11:06:28;;;;;;;0.10;0.10;;;;;;;11.47;78.58;99359.59;7366926;19;20023;-60
2022/12/25 11:08:58;;;;;;;0.00;0.00;;;;;;;11.61;78.73;99364.16;7368167;19;20070;-61
2022/12/25 11:11:26;;;;;;;0.00;0.00;;;;;;;11.70;78.30;99356.69;7369408;19;20820;-61
2022/12/25 11:14:00;;;;;;;0.05;0.05;;;;;;;11.89;77.91;99355.81;7362147;19;20073;-61
2022/12/25 11:16:28;;;;;;;0.10;0.10;;;;;;;11.99;78.21;99357.06;7369592;19;20010;-61
2022/12/25 11:18:55;;;;;;;0.10;0.10;;;;;;;12.17;77.39;99353.53;7334108;19;20017;-61
2022/12/25 11:21:33;;;;;;;0.05;0.05;;;;;;;12.45;77.88;99354.72;7356873;19;20014;-61
2022/12/25 11:24:02;;;;;;;0.10;0.10;;;;;;;12.61;77.03;99344.28;7357252;19;20014;-61
2022/12/25 11:26:30;;;;;;;0.05;0.05;;;;;;;12.86;76.87;99343.84;7357178;19;20032;-61
2022/12/25 11:28:56;;;;;;;0.10;0.10;;;;;;;13.07;76.77;99332.19;7359105;19;20098;-61
2022/12/25 11:31:54;;;;;;;0.00;0.00;;;;;;;13.35;76.52;99330.69;7357835;19;21005;-59
2022/12/25 11:34:34;;;;;;;0.10;0.10;;;;;;;13.57;76.46;99335.56;7255378;19;2004533;-61
2022/12/25 11:37:01;;;;;;;0.10;0.10;;;;;;;13.69;75.31;99335.75;7359729;19;20014;-61
2022/12/25 11:39:27;;;;;;;;;;;;;;;13.97;76.87;99334.13;7359238;19;20787;-61
2022/12/25 11:41:57;;;;;;;0.10;0.10;;;;;;;14.10;74.76;99340.34;7357440;19;19919;-61
2022/12/25 11:44:47;;;;;;;0.10;0.10;;;;;;;14.37;75.27;99337.03;7358121;19;20444;-61
2022/12/25 11:47:31;;;;;;;0.10;0.10;;;;;;;14.54;74.63;99340.34;7355594;19;20013;-61
2022/12/25 11:50:06;;;;;;;0.05;0.05;;;;;;;14.52;74.19;99317.75;7357234;19;20010;-60
2022/12/25 11:52:37;;;;;;;0.10;0.10;;;;;;;14.68;74.40;99339.50;7358100;19;20015;-61
2022/12/25 11:55:24;;;;;;;0.10;0.10;;;;;;;14.78;74.17;99348.50;7355954;19;20027;-60
2022/12/25 11:57:53;;;;;;;0.10;0.10;;;;;;;14.75;73.77;99332.06;7354815;19;20693;-60
2022/12/25 12:00:19;;;;;;;0.10;0.10;;;;;;;14.74;73.48;99333.88;7355007;19;20042;-61
2022/12/25 12:02:52;;;;;;;0.10;0.10;;;;;;;14.81;73.83;99334.34;7369528;19;20381;-61
2022/12/25 12:05:24;;;;;;;0.10;0.10;;;;;;;14.85;73.43;99334.97;7363522;19;20007;-61
2022/12/25 12:07:54;;;;;;;0.10;0.10;;;;;;;14.86;73.55;99328.81;7359773;19;20028;-60
2022/12/25 12:10:44;;;;;;;0.10;0.10;;;;;;;14.96;73.66;99329.94;7367679;19;20990;-61
2022/12/25 12:13:15;;;;;;;0.10;0.10;;;;;;;14.97;73.40;99316.69;7367671;19;20046;-60
2022/12/25 12:15:44;;;;;;;0.10;0.10;;;;;;;15.10;73.25;99327.25;7367035;19;20506;-61
2022/12/25 12:18:22;;;;;;;0.10;0.10;;;;;;;15.27;74.18;99324.41;7368246;19;20018;-61
2022/12/25 12:21:10;;;;;;;0.10;0.10;;;;;;;15.48;73.90;99323.97;7366554;19;20413;-61
2022/12/25 12:23:53;;;;;;;0.10;0.10;;;;;;;15.62;73.61;99316.03;7367755;19;20014;-60
2022/12/25 12:26:25;;;;;;;0.08;0.08;;;;;;;15.74;73.37;99331.03;7366592;19;20086;-61
2022/12/25 12:28:54;;;;;;;0.10;0.10;;;;;;;15.90;71.97;99341.38;7367860;19;20107;-61
2022/12/25 12:31:20;;;;;;;0.10;0.10;;;;;;;15.92;71.49;99330.78;7365446;19;20014;-61
2022/12/25 12:33:57;;;;;;;0.10;0.10;;;;;;;16.02;71.49;99323.94;7367950;19;20006;-61
2022/12/25 12:36:25;;;;;;;0.10;0.10;;;;;;;15.88;71.21;99313.50;7365643;19;20010;-61
2022/12/25 12:38:52;;;;;;;0.10;0.10;;;;;;;15.95;71.25;99310.34;7367659;19;20054;-60
2022/12/25 12:41:20;;;;;;;0.10;0.10;;;;;;;16.06;71.11;99314.88;7367393;19;20011;-61
2022/12/25 12:43:53;;;;;;;0.10;0.10;;;;;;;16.15;71.13;99311.63;7367204;19;20345;-60
2022/12/25 12:46:29;;;;;;;0.10;0.10;;;;;;;16.25;71.19;99301.31;7364643;19;20526;-61
2022/12/25 12:49:16;;;;;;;0.10;0.10;;;;;;;16.49;71.62;99325.97;7366609;19;20070;-61
2022/12/25 12:51:41;;;;;;;0.10;0.10;;;;;;;16.46;70.40;99327.97;7366986;19;20037;-60
2022/12/25 12:54:17;;;;;;;0.10;0.10;;;;;;;16.45;70.40;99313.94;7366961;19;23014;-61
2022/12/25 12:57:08;;;;;;;0.10;0.10;;;;;;;16.37;70.67;99315.41;7365999;19;20121;-61
2022/12/25 12:59:37;;;;;;;0.10;0.10;;;;;;;16.22;70.48;99302.38;7261190;19;2004293;-60
2022/12/25 13:02:21;;;;;;;0.10;0.10;;;;;;;16.14;70.69;99309.09;7365823;19;20018;-61
2022/12/25 13:05:21;;;;;;;0.10;0.10;;;;;;;16.13;71.76;99283.72;7362725;19;20070;-60
2022/12/25 13:08:24;;;;;;;0.10;0.10;;;;;;;16.30;73.16;99284.22;7262690;19;2004233;-61
2022/12/25 13:11:03;;;;;;;0.10;0.10;;;;;;;16.36;72.24;99288.22;7264466;19;2004323;-61
2022/12/25 13:13:37;;;;;;;0.00;0.00;;;;;;;16.45;72.23;99276.22;7366302;19;20086;-61
2022/12/25 13:16:05;;;;;;;0.10;0.10;;;;;;;16.40;70.44;99265.16;7365504;19;21743;-61
2022/12/25 13:18:32;;;;;;;0.10;0.10;;;;;;;16.58;71.40;99287.59;7365866;19;20010;-60
2022/12/25 13:21:00;;;;;;;;;;;;;;;16.74;73.20;99303.22;7367769;19;20749;-61
2022/12/25 13:23:29;;;;;;;0.10;0.10;;;;;;;16.72;71.56;99287.47;7364747;19;19923;-60
2022/12/25 13:25:57;;;;;;;0.10;0.10;;;;;;;16.71;70.51;99283.16;7365589;19;20014;-61
2022/12/25 13:28:30;;;;;;;0.10;0.10;;;;;;;16.73;71.59;99285.72;7364800;19;20034;-61
2022/12/25 13:31:01;;;;;;;0.10;0.10;;;;;;;16.64;70.49;99291.59;7366256;19;20021;-60
2022/12/25 13:33:27;;;;;;;0.10;0.10;;;;;;;16.51;70.57;99289.81;7363559;19;20019;-60
2022/12/25 13:35:53;;;;;;;0.10;0.10;;;;;;;16.40;71.33;99278.34;7365037;19;20013;-60